sensor_id;sensor_type;location;lat;lon;timestamp;P1;durP1;ratioP1;P2;durP2;ratioP2
8399;SDS011;4237;47.030;15.396;2023-02-14T00:00:30;22.63;;;14.40;;
8399;SDS011;4237;47.030;15.396;2023-02-14T00:02:58;23.37;;;15.07;;
8399;SDS011;4237;47.030;15.396;2023-02-14T00:05:27;26.80;;;14.80;;
8399;SDS011;4237;47.030;15.396;2023-02-14T00:07:56;25.33;;;14.37;;
8399;SDS011;4237;47.030;15.396;2023-02-14T00:10:24;23.63;;;14.00;;
8399;SDS011;4237;47.030;15.396;2023-02-14T00:12:53;23.80;;;14.30;;
8399;SDS011;4237;47.030;15.396;2023-02-14T00:15:21;25.73;;;13.70;;
8399;SDS011;4237;47.030;15.396;2023-02-14T00:17:52;22.37;;;14.13;;
8399;SDS011;4237;47.030;15.396;2023-02-14T00:20:22;27.63;;;15.00;;
8399;SDS011;4237;47.030;15.396;2023-02-14T00:22:52;25.40;;;14.73;;
8399;SDS011;4237;47.030;15.396;2023-02-14T00:25:21;28.60;;;14.53;;
8399;SDS011;4237;47.030;15.396;2023-02-14T00:27:50;27.83;;;14.87;;
8399;SDS011;4237;47.030;15.396;2023-02-14T00:30:21;22.43;;;13.63;;
8399;SDS011;4237;47.030;15.396;2023-02-14T00:32:50;23.30;;;14.17;;
8399;SDS011;4237;47.030;15.396;2023-02-14T00:35:18;31.57;;;16.03;;
8399;SDS011;4237;47.030;15.396;2023-02-14T00:37:47;30.23;;;16.70;;
8399;SDS011;4237;47.030;15.396;2023-02-14T00:40:15;27.07;;;16.47;;
8399;SDS011;4237;47.030;15.396;2023-02-14T00:42:44;30.00;;;16.97;;
8399;SDS011;4237;47.030;15.396;2023-02-14T00:45:13;34.33;;;17.37;;
8399;SDS011;4237;47.030;15.396;2023-02-14T00:47:43;26.07;;;14.87;;
8399;SDS011;4237;47.030;15.396;2023-02-14T00:50:12;26.53;;;15.67;;
8399;SDS011;4237;47.030;15.396;2023-02-14T00:52:40;33.50;;;15.33;;
8399;SDS011;4237;47.030;15.396;2023-02-14T00:55:09;29.90;;;14.83;;
8399;SDS011;4237;47.030;15.396;2023-02-14T00:57:37;27.77;;;16.27;;
8399;SDS011;4237;47.030;15.396;2023-02-14T01:00:07;26.53;;;15.70;;
8399;SDS011;4237;47.030;15.396;2023-02-14T01:02:40;24.97;;;15.00;;
8399;SDS011;4237;47.030;15.396;2023-02-14T01:05:08;25.87;;;14.37;;
8399;SDS011;4237;47.030;15.396;2023-02-14T01:07:37;25.80;;;15.30;;
8399;SDS011;4237;47.030;15.396;2023-02-14T01:10:06;23.83;;;14.00;;
8399;SDS011;4237;47.030;15.396;2023-02-14T01:12:35;25.37;;;14.53;;
8399;SDS011;4237;47.030;15.396;2023-02-14T01:15:04;25.87;;;14.23;;
8399;SDS011;4237;47.030;15.396;2023-02-14T01:17:33;21.93;;;13.33;;
8399;SDS011;4237;47.030;15.396;2023-02-14T01:20:02;21.07;;;12.63;;
8399;SDS011;4237;47.030;15.396;2023-02-14T01:22:35;24.53;;;12.37;;
8399;SDS011;4237;47.030;15.396;2023-02-14T01:25:05;26.53;;;14.20;;
8399;SDS011;4237;47.030;15.396;2023-02-14T01:27:34;22.13;;;13.17;;
8399;SDS011;4237;47.030;15.396;2023-02-14T01:30:03;25.70;;;13.37;;
8399;SDS011;4237;47.030;15.396;2023-02-14T01:32:33;24.33;;;13.57;;
8399;SDS011;4237;47.030;15.396;2023-02-14T01:35:02;25.20;;;14.13;;
8399;SDS011;4237;47.030;15.396;2023-02-14T01:37:30;24.03;;;13.67;;
8399;SDS011;4237;47.030;15.396;2023-02-14T01:39:59;26.13;;;13.73;;
8399;SDS011;4237;47.030;15.396;2023-02-14T01:42:28;19.97;;;12.63;;
8399;SDS011;4237;47.030;15.396;2023-02-14T01:47:38;24.67;;;13.27;;
8399;SDS011;4237;47.030;15.396;2023-02-14T01:50:13;22.20;;;13.50;;
8399;SDS011;4237;47.030;15.396;2023-02-14T01:52:57;23.53;;;12.97;;
8399;SDS011;4237;47.030;15.396;2023-02-14T01:55:31;21.30;;;12.73;;
8399;SDS011;4237;47.030;15.396;2023-02-14T01:58:05;23.07;;;12.97;;
8399;SDS011;4237;47.030;15.396;2023-02-14T02:00:40;24.30;;;12.77;;
8399;SDS011;4237;47.030;15.396;2023-02-14T02:03:31;24.77;;;12.87;;
8399;SDS011;4237;47.030;15.396;2023-02-14T02:06:48;24.17;;;13.13;;
8399;SDS011;4237;47.030;15.396;2023-02-14T02:08:42;24.63;;;13.60;;
8399;SDS011;4237;47.030;15.396;2023-02-14T02:11:13;23.93;;;12.77;;
8399;SDS011;4237;47.030;15.396;2023-02-14T02:13:41;26.97;;;14.63;;
8399;SDS011;4237;47.030;15.396;2023-02-14T02:18:55;26.53;;;14.47;;
8399;SDS011;4237;47.030;15.396;2023-02-14T02:24:25;24.90;;;14.03;;
8399;SDS011;4237;47.030;15.396;2023-02-14T02:27:05;23.83;;;14.70;;
8399;SDS011;4237;47.030;15.396;2023-02-14T02:32:51;21.17;;;13.10;;
8399;SDS011;4237;47.030;15.396;2023-02-14T02:35:40;26.27;;;14.17;;
8399;SDS011;4237;47.030;15.396;2023-02-14T02:41:03;25.40;;;13.37;;
8399;SDS011;4237;47.030;15.396;2023-02-14T02:43:47;25.17;;;13.57;;
8399;SDS011;4237;47.030;15.396;2023-02-14T02:46:30;23.10;;;12.83;;
8399;SDS011;4237;47.030;15.396;2023-02-14T02:52:26;19.80;;;12.10;;
8399;SDS011;4237;47.030;15.396;2023-02-14T02:55:27;21.87;;;12.17;;
8399;SDS011;4237;47.030;15.396;2023-02-14T02:57:51;26.10;;;12.73;;
8399;SDS011;4237;47.030;15.396;2023-02-14T03:00:21;23.23;;;13.03;;
8399;SDS011;4237;47.030;15.396;2023-02-14T03:02:53;24.40;;;13.03;;
8399;SDS011;4237;47.030;15.396;2023-02-14T03:05:41;22.20;;;12.70;;
8399;SDS011;4237;47.030;15.396;2023-02-14T03:08:11;24.30;;;12.90;;
8399;SDS011;4237;47.030;15.396;2023-02-14T03:10:39;23.80;;;13.63;;
8399;SDS011;4237;47.030;15.396;2023-02-14T03:18:48;31.60;;;15.33;;
8399;SDS011;4237;47.030;15.396;2023-02-14T03:21:34;30.77;;;15.50;;
8399;SDS011;4237;47.030;15.396;2023-02-14T03:27:00;30.43;;;14.87;;
8399;SDS011;4237;47.030;15.396;2023-02-14T03:29:50;30.97;;;16.30;;
8399;SDS011;4237;47.030;15.396;2023-02-14T03:32:38;31.93;;;16.77;;
8399;SDS011;4237;47.030;15.396;2023-02-14T03:35:21;30.97;;;14.80;;
8399;SDS011;4237;47.030;15.396;2023-02-14T03:43:24;23.13;;;12.53;;
8399;SDS011;4237;47.030;15.396;2023-02-14T03:48:30;23.93;;;12.80;;
8399;SDS011;4237;47.030;15.396;2023-02-14T03:51:02;29.37;;;14.13;;
8399;SDS011;4237;47.030;15.396;2023-02-14T03:53:34;23.83;;;12.33;;
8399;SDS011;4237;47.030;15.396;2023-02-14T03:56:17;27.47;;;12.83;;
8399;SDS011;4237;47.030;15.396;2023-02-14T03:58:48;27.90;;;13.13;;
8399;SDS011;4237;47.030;15.396;2023-02-14T04:01:22;23.17;;;12.80;;
8399;SDS011;4237;47.030;15.396;2023-02-14T04:03:56;22.50;;;12.50;;
8399;SDS011;4237;47.030;15.396;2023-02-14T04:06:26;23.67;;;11.87;;
8399;SDS011;4237;47.030;15.396;2023-02-14T04:08:55;26.47;;;12.80;;
8399;SDS011;4237;47.030;15.396;2023-02-14T04:11:23;22.43;;;12.87;;
8399;SDS011;4237;47.030;15.396;2023-02-14T04:13:52;23.30;;;13.03;;
8399;SDS011;4237;47.030;15.396;2023-02-14T04:16:21;23.37;;;12.43;;
8399;SDS011;4237;47.030;15.396;2023-02-14T04:18:49;20.47;;;12.93;;
8399;SDS011;4237;47.030;15.396;2023-02-14T04:21:36;26.77;;;12.80;;
8399;SDS011;4237;47.030;15.396;2023-02-14T04:24:05;25.07;;;12.73;;
8399;SDS011;4237;47.030;15.396;2023-02-14T04:26:34;30.63;;;13.33;;
8399;SDS011;4237;47.030;15.396;2023-02-14T04:29:03;24.27;;;13.63;;
8399;SDS011;4237;47.030;15.396;2023-02-14T04:31:31;26.10;;;13.73;;
8399;SDS011;4237;47.030;15.396;2023-02-14T04:34:00;26.30;;;14.50;;
8399;SDS011;4237;47.030;15.396;2023-02-14T04:36:28;27.20;;;13.87;;
8399;SDS011;4237;47.030;15.396;2023-02-14T04:38:57;23.57;;;13.43;;
8399;SDS011;4237;47.030;15.396;2023-02-14T04:41:26;26.97;;;13.30;;
8399;SDS011;4237;47.030;15.396;2023-02-14T04:43:54;27.70;;;13.93;;
8399;SDS011;4237;47.030;15.396;2023-02-14T04:46:23;24.13;;;13.70;;
8399;SDS011;4237;47.030;15.396;2023-02-14T04:48:51;25.60;;;14.63;;
8399;SDS011;4237;47.030;15.396;2023-02-14T04:51:20;24.53;;;13.40;;
8399;SDS011;4237;47.030;15.396;2023-02-14T04:53:48;25.23;;;12.43;;
8399;SDS011;4237;47.030;15.396;2023-02-14T04:56:17;25.20;;;12.80;;
8399;SDS011;4237;47.030;15.396;2023-02-14T04:58:46;24.17;;;13.47;;
8399;SDS011;4237;47.030;15.396;2023-02-14T05:01:14;27.47;;;14.20;;
8399;SDS011;4237;47.030;15.396;2023-02-14T05:03:43;24.10;;;14.37;;
8399;SDS011;4237;47.030;15.396;2023-02-14T05:06:11;26.60;;;13.80;;
8399;SDS011;4237;47.030;15.396;2023-02-14T05:08:40;29.83;;;15.00;;
8399;SDS011;4237;47.030;15.396;2023-02-14T05:11:08;25.87;;;14.47;;
8399;SDS011;4237;47.030;15.396;2023-02-14T05:13:37;28.00;;;14.30;;
8399;SDS011;4237;47.030;15.396;2023-02-14T05:16:06;29.60;;;14.53;;
8399;SDS011;4237;47.030;15.396;2023-02-14T05:18:34;29.63;;;15.70;;
8399;SDS011;4237;47.030;15.396;2023-02-14T05:21:04;31.23;;;14.20;;
8399;SDS011;4237;47.030;15.396;2023-02-14T05:23:33;25.77;;;14.10;;
8399;SDS011;4237;47.030;15.396;2023-02-14T05:26:02;26.57;;;13.23;;
8399;SDS011;4237;47.030;15.396;2023-02-14T05:28:31;23.33;;;13.10;;
8399;SDS011;4237;47.030;15.396;2023-02-14T05:31:00;25.27;;;14.13;;
8399;SDS011;4237;47.030;15.396;2023-02-14T05:33:29;26.83;;;12.83;;
8399;SDS011;4237;47.030;15.396;2023-02-14T05:35:58;24.33;;;13.00;;
8399;SDS011;4237;47.030;15.396;2023-02-14T05:38:29;28.47;;;16.07;;
8399;SDS011;4237;47.030;15.396;2023-02-14T05:40:59;25.10;;;14.23;;
8399;SDS011;4237;47.030;15.396;2023-02-14T05:43:29;27.43;;;15.70;;
8399;SDS011;4237;47.030;15.396;2023-02-14T05:45:58;32.63;;;15.77;;
8399;SDS011;4237;47.030;15.396;2023-02-14T05:48:27;28.30;;;14.53;;
8399;SDS011;4237;47.030;15.396;2023-02-14T05:50:55;27.80;;;14.50;;
8399;SDS011;4237;47.030;15.396;2023-02-14T05:53:24;32.97;;;14.50;;
8399;SDS011;4237;47.030;15.396;2023-02-14T05:55:52;36.60;;;18.37;;
8399;SDS011;4237;47.030;15.396;2023-02-14T05:58:21;28.43;;;14.17;;
8399;SDS011;4237;47.030;15.396;2023-02-14T06:00:50;28.63;;;15.27;;
8399;SDS011;4237;47.030;15.396;2023-02-14T06:03:18;32.27;;;16.17;;
8399;SDS011;4237;47.030;15.396;2023-02-14T06:05:47;29.83;;;15.40;;
8399;SDS011;4237;47.030;15.396;2023-02-14T06:08:16;28.13;;;16.03;;
8399;SDS011;4237;47.030;15.396;2023-02-14T06:10:44;30.67;;;15.63;;
8399;SDS011;4237;47.030;15.396;2023-02-14T06:13:13;28.37;;;14.87;;
8399;SDS011;4237;47.030;15.396;2023-02-14T06:15:42;43.27;;;15.20;;
8399;SDS011;4237;47.030;15.396;2023-02-14T06:18:10;26.70;;;14.73;;
8399;SDS011;4237;47.030;15.396;2023-02-14T06:20:39;31.90;;;14.93;;
8399;SDS011;4237;47.030;15.396;2023-02-14T06:23:08;32.87;;;16.30;;
8399;SDS011;4237;47.030;15.396;2023-02-14T06:25:37;29.83;;;16.57;;
8399;SDS011;4237;47.030;15.396;2023-02-14T06:28:05;27.83;;;16.00;;
8399;SDS011;4237;47.030;15.396;2023-02-14T06:30:34;26.13;;;14.63;;
8399;SDS011;4237;47.030;15.396;2023-02-14T06:33:02;27.60;;;15.90;;
8399;SDS011;4237;47.030;15.396;2023-02-14T06:35:31;25.00;;;15.40;;
8399;SDS011;4237;47.030;15.396;2023-02-14T06:37:59;27.17;;;16.00;;
8399;SDS011;4237;47.030;15.396;2023-02-14T06:40:28;28.60;;;15.07;;
8399;SDS011;4237;47.030;15.396;2023-02-14T06:42:57;21.27;;;11.90;;
8399;SDS011;4237;47.030;15.396;2023-02-14T06:45:25;20.60;;;12.77;;
8399;SDS011;4237;47.030;15.396;2023-02-14T06:47:54;16.60;;;11.10;;
8399;SDS011;4237;47.030;15.396;2023-02-14T06:50:22;18.73;;;10.97;;
8399;SDS011;4237;47.030;15.396;2023-02-14T06:52:51;20.40;;;11.10;;
8399;SDS011;4237;47.030;15.396;2023-02-14T06:55:20;15.97;;;10.10;;
8399;SDS011;4237;47.030;15.396;2023-02-14T06:57:48;12.73;;;8.97;;
8399;SDS011;4237;47.030;15.396;2023-02-14T07:00:18;15.70;;;9.90;;
8399;SDS011;4237;47.030;15.396;2023-02-14T07:02:47;17.50;;;11.70;;
8399;SDS011;4237;47.030;15.396;2023-02-14T07:05:16;18.73;;;11.73;;
8399;SDS011;4237;47.030;15.396;2023-02-14T07:07:45;22.23;;;13.50;;
8399;SDS011;4237;47.030;15.396;2023-02-14T07:10:14;18.93;;;13.70;;
8399;SDS011;4237;47.030;15.396;2023-02-14T07:12:43;22.17;;;13.80;;
8399;SDS011;4237;47.030;15.396;2023-02-14T07:15:12;20.80;;;12.73;;
8399;SDS011;4237;47.030;15.396;2023-02-14T07:17:41;20.03;;;12.73;;
8399;SDS011;4237;47.030;15.396;2023-02-14T07:20:11;25.27;;;16.33;;
8399;SDS011;4237;47.030;15.396;2023-02-14T07:22:41;24.07;;;14.90;;
8399;SDS011;4237;47.030;15.396;2023-02-14T07:25:10;27.93;;;16.23;;
8399;SDS011;4237;47.030;15.396;2023-02-14T07:27:39;23.93;;;15.13;;
8399;SDS011;4237;47.030;15.396;2023-02-14T07:30:08;26.20;;;15.70;;
8399;SDS011;4237;47.030;15.396;2023-02-14T07:32:38;22.13;;;13.93;;
8399;SDS011;4237;47.030;15.396;2023-02-14T07:35:07;20.73;;;14.27;;
8399;SDS011;4237;47.030;15.396;2023-02-14T07:37:36;21.10;;;13.87;;
8399;SDS011;4237;47.030;15.396;2023-02-14T07:40:05;19.43;;;14.23;;
8399;SDS011;4237;47.030;15.396;2023-02-14T07:42:34;22.23;;;13.47;;
8399;SDS011;4237;47.030;15.396;2023-02-14T07:45:03;19.80;;;13.30;;
8399;SDS011;4237;47.030;15.396;2023-02-14T07:47:33;21.57;;;13.27;;
8399;SDS011;4237;47.030;15.396;2023-02-14T07:50:01;16.40;;;12.70;;
8399;SDS011;4237;47.030;15.396;2023-02-14T07:52:30;18.00;;;11.67;;
8399;SDS011;4237;47.030;15.396;2023-02-14T07:54:59;17.90;;;11.23;;
8399;SDS011;4237;47.030;15.396;2023-02-14T07:57:27;16.57;;;10.73;;
8399;SDS011;4237;47.030;15.396;2023-02-14T07:59:56;17.00;;;10.57;;
8399;SDS011;4237;47.030;15.396;2023-02-14T08:02:24;20.77;;;10.67;;
8399;SDS011;4237;47.030;15.396;2023-02-14T08:04:53;16.07;;;11.40;;
8399;SDS011;4237;47.030;15.396;2023-02-14T08:07:22;19.73;;;13.17;;
8399;SDS011;4237;47.030;15.396;2023-02-14T08:09:51;16.60;;;12.70;;
8399;SDS011;4237;47.030;15.396;2023-02-14T08:12:19;16.33;;;13.00;;
8399;SDS011;4237;47.030;15.396;2023-02-14T08:15:06;14.73;;;11.70;;
8399;SDS011;4237;47.030;15.396;2023-02-14T08:17:54;19.27;;;11.70;;
8399;SDS011;4237;47.030;15.396;2023-02-14T08:20:23;19.87;;;10.67;;
8399;SDS011;4237;47.030;15.396;2023-02-14T08:22:52;21.93;;;11.03;;
8399;SDS011;4237;47.030;15.396;2023-02-14T08:25:21;16.73;;;10.40;;
8399;SDS011;4237;47.030;15.396;2023-02-14T08:27:50;17.17;;;11.73;;
8399;SDS011;4237;47.030;15.396;2023-02-14T08:30:20;17.83;;;11.57;;
8399;SDS011;4237;47.030;15.396;2023-02-14T08:32:49;21.33;;;11.23;;
8399;SDS011;4237;47.030;15.396;2023-02-14T08:35:19;15.53;;;10.50;;
8399;SDS011;4237;47.030;15.396;2023-02-14T08:37:48;18.40;;;11.27;;
8399;SDS011;4237;47.030;15.396;2023-02-14T08:40:16;18.17;;;11.27;;
8399;SDS011;4237;47.030;15.396;2023-02-14T08:42:46;21.70;;;10.83;;
8399;SDS011;4237;47.030;15.396;2023-02-14T08:45:15;21.67;;;11.60;;
8399;SDS011;4237;47.030;15.396;2023-02-14T08:47:44;19.80;;;11.20;;
8399;SDS011;4237;47.030;15.396;2023-02-14T08:50:13;20.17;;;10.97;;
8399;SDS011;4237;47.030;15.396;2023-02-14T08:52:43;20.87;;;11.60;;
8399;SDS011;4237;47.030;15.396;2023-02-14T08:55:12;22.37;;;11.30;;
8399;SDS011;4237;47.030;15.396;2023-02-14T08:57:41;22.30;;;11.20;;
8399;SDS011;4237;47.030;15.396;2023-02-14T09:00:10;20.93;;;11.90;;
8399;SDS011;4237;47.030;15.396;2023-02-14T09:02:39;22.87;;;12.63;;
8399;SDS011;4237;47.030;15.396;2023-02-14T09:05:07;15.63;;;11.20;;
8399;SDS011;4237;47.030;15.396;2023-02-14T09:07:36;17.30;;;11.33;;
8399;SDS011;4237;47.030;15.396;2023-02-14T09:10:06;18.50;;;12.03;;
8399;SDS011;4237;47.030;15.396;2023-02-14T09:12:37;19.55;;;11.88;;
8399;SDS011;4237;47.030;15.396;2023-02-14T09:15:07;16.62;;;11.73;;
8399;SDS011;4237;47.030;15.396;2023-02-14T09:17:37;15.70;;;11.85;;
8399;SDS011;4237;47.030;15.396;2023-02-14T09:20:09;22.80;;;12.37;;
8399;SDS011;4237;47.030;15.396;2023-02-14T09:22:39;17.67;;;11.38;;
8399;SDS011;4237;47.030;15.396;2023-02-14T09:25:08;18.75;;;11.78;;
8399;SDS011;4237;47.030;15.396;2023-02-14T09:27:37;17.65;;;11.00;;
8399;SDS011;4237;47.030;15.396;2023-02-14T09:30:08;20.17;;;11.80;;
8399;SDS011;4237;47.030;15.396;2023-02-14T09:32:37;14.38;;;10.90;;
8399;SDS011;4237;47.030;15.396;2023-02-14T09:35:06;18.60;;;10.98;;
8399;SDS011;4237;47.030;15.396;2023-02-14T09:37:53;16.52;;;10.80;;
8399;SDS011;4237;47.030;15.396;2023-02-14T09:40:40;23.35;;;10.08;;
8399;SDS011;4237;47.030;15.396;2023-02-14T09:45:57;12.30;;;9.15;;
8399;SDS011;4237;47.030;15.396;2023-02-14T09:48:32;11.15;;;9.58;;
8399;SDS011;4237;47.030;15.396;2023-02-14T09:51:10;10.68;;;9.03;;
8399;SDS011;4237;47.030;15.396;2023-02-14T09:53:35;10.98;;;8.93;;
8399;SDS011;4237;47.030;15.396;2023-02-14T09:59:00;14.98;;;10.48;;
8399;SDS011;4237;47.030;15.396;2023-02-14T10:01:35;11.20;;;8.90;;
8399;SDS011;4237;47.030;15.396;2023-02-14T10:09:29;16.48;;;9.80;;
8399;SDS011;4237;47.030;15.396;2023-02-14T10:12:27;21.62;;;10.85;;
8399;SDS011;4237;47.030;15.396;2023-02-14T10:14:52;14.00;;;10.23;;
8399;SDS011;4237;47.030;15.396;2023-02-14T10:17:26;19.40;;;10.05;;
8399;SDS011;4237;47.030;15.396;2023-02-14T10:20:19;17.37;;;10.00;;
8399;SDS011;4237;47.030;15.396;2023-02-14T10:23:04;17.05;;;10.68;;
8399;SDS011;4237;47.030;15.396;2023-02-14T10:25:37;16.50;;;10.65;;
8399;SDS011;4237;47.030;15.396;2023-02-14T10:28:07;15.70;;;10.05;;
8399;SDS011;4237;47.030;15.396;2023-02-14T10:30:37;14.28;;;9.60;;
8399;SDS011;4237;47.030;15.396;2023-02-14T10:40:57;15.93;;;10.82;;
8399;SDS011;4237;47.030;15.396;2023-02-14T10:43:28;13.22;;;10.45;;
8399;SDS011;4237;47.030;15.396;2023-02-14T10:46:03;15.83;;;11.07;;
8399;SDS011;4237;47.030;15.396;2023-02-14T10:48:52;12.77;;;10.57;;
8399;SDS011;4237;47.030;15.396;2023-02-14T10:51:43;15.60;;;10.93;;
8399;SDS011;4237;47.030;15.396;2023-02-14T10:54:21;17.43;;;10.97;;
8399;SDS011;4237;47.030;15.396;2023-02-14T10:57:03;16.73;;;11.47;;
8399;SDS011;4237;47.030;15.396;2023-02-14T11:02:18;14.23;;;11.13;;
8399;SDS011;4237;47.030;15.396;2023-02-14T11:04:49;18.10;;;11.27;;
8399;SDS011;4237;47.030;15.396;2023-02-14T11:07:19;18.70;;;11.00;;
8399;SDS011;4237;47.030;15.396;2023-02-14T11:09:48;14.77;;;10.80;;
8399;SDS011;4237;47.030;15.396;2023-02-14T11:12:36;18.50;;;11.30;;
8399;SDS011;4237;47.030;15.396;2023-02-14T11:15:08;14.73;;;10.47;;
8399;SDS011;4237;47.030;15.396;2023-02-14T11:17:39;15.90;;;11.40;;
8399;SDS011;4237;47.030;15.396;2023-02-14T11:20:27;13.00;;;10.90;;
8399;SDS011;4237;47.030;15.396;2023-02-14T11:22:49;17.00;;;12.17;;
8399;SDS011;4237;47.030;15.396;2023-02-14T11:25:22;16.60;;;11.90;;
8399;SDS011;4237;47.030;15.396;2023-02-14T11:28:07;15.93;;;11.00;;
8399;SDS011;4237;47.030;15.396;2023-02-14T11:30:40;17.10;;;11.37;;
8399;SDS011;4237;47.030;15.396;2023-02-14T11:33:22;13.23;;;11.47;;
8399;SDS011;4237;47.030;15.396;2023-02-14T11:36:01;13.53;;;10.57;;
8399;SDS011;4237;47.030;15.396;2023-02-14T11:38:33;18.63;;;10.60;;
8399;SDS011;4237;47.030;15.396;2023-02-14T11:41:06;16.93;;;11.28;;
8399;SDS011;4237;47.030;15.396;2023-02-14T11:43:45;22.65;;;11.78;;
8399;SDS011;4237;47.030;15.396;2023-02-14T11:46:30;16.10;;;11.33;;
8399;SDS011;4237;47.030;15.396;2023-02-14T11:49:21;14.43;;;11.63;;
8399;SDS011;4237;47.030;15.396;2023-02-14T11:51:34;19.87;;;11.43;;
8399;SDS011;4237;47.030;15.396;2023-02-14T11:54:12;16.60;;;11.67;;
8399;SDS011;4237;47.030;15.396;2023-02-14T11:56:51;13.60;;;11.10;;
8399;SDS011;4237;47.030;15.396;2023-02-14T11:59:24;16.70;;;10.03;;
8399;SDS011;4237;47.030;15.396;2023-02-14T12:01:55;19.00;;;11.73;;
8399;SDS011;4237;47.030;15.396;2023-02-14T12:04:30;17.20;;;11.87;;
8399;SDS011;4237;47.030;15.396;2023-02-14T12:07:13;14.77;;;11.63;;
8399;SDS011;4237;47.030;15.396;2023-02-14T12:10:05;17.57;;;12.17;;
8399;SDS011;4237;47.030;15.396;2023-02-14T12:12:38;21.07;;;12.30;;
8399;SDS011;4237;47.030;15.396;2023-02-14T12:18:01;20.43;;;12.07;;
8399;SDS011;4237;47.030;15.396;2023-02-14T12:26:42;17.47;;;11.20;;
8399;SDS011;4237;47.030;15.396;2023-02-14T12:29:28;14.70;;;11.80;;
8399;SDS011;4237;47.030;15.396;2023-02-14T12:31:53;16.40;;;12.07;;
8399;SDS011;4237;47.030;15.396;2023-02-14T12:34:24;16.83;;;11.87;;
8399;SDS011;4237;47.030;15.396;2023-02-14T12:37:13;15.23;;;11.80;;
8399;SDS011;4237;47.030;15.396;2023-02-14T12:42:34;16.37;;;11.80;;
8399;SDS011;4237;47.030;15.396;2023-02-14T12:48:03;14.57;;;11.03;;
8399;SDS011;4237;47.030;15.396;2023-02-14T13:02:09;12.67;;;10.23;;
8399;SDS011;4237;47.030;15.396;2023-02-14T13:04:56;13.67;;;11.20;;
8399;SDS011;4237;47.030;15.396;2023-02-14T13:13:06;16.07;;;11.17;;
8399;SDS011;4237;47.030;15.396;2023-02-14T13:18:56;13.47;;;10.33;;
8399;SDS011;4237;47.030;15.396;2023-02-14T13:21:27;12.87;;;10.27;;
8399;SDS011;4237;47.030;15.396;2023-02-14T13:24:20;14.07;;;10.90;;
8399;SDS011;4237;47.030;15.396;2023-02-14T13:26:48;13.13;;;10.50;;
8399;SDS011;4237;47.030;15.396;2023-02-14T13:29:22;16.67;;;11.33;;
8399;SDS011;4237;47.030;15.396;2023-02-14T13:31:55;18.90;;;11.30;;
8399;SDS011;4237;47.030;15.396;2023-02-14T13:34:29;16.20;;;11.00;;
8399;SDS011;4237;47.030;15.396;2023-02-14T13:36:59;14.47;;;10.33;;
8399;SDS011;4237;47.030;15.396;2023-02-14T13:42:03;14.07;;;10.97;;
8399;SDS011;4237;47.030;15.396;2023-02-14T13:44:48;17.63;;;10.93;;
8399;SDS011;4237;47.030;15.396;2023-02-14T13:47:19;16.73;;;10.77;;
8399;SDS011;4237;47.030;15.396;2023-02-14T13:49:57;16.27;;;11.07;;
8399;SDS011;4237;47.030;15.396;2023-02-14T13:52:45;14.90;;;10.97;;
8399;SDS011;4237;47.030;15.396;2023-02-14T13:55:20;15.27;;;11.20;;
8399;SDS011;4237;47.030;15.396;2023-02-14T13:58:04;17.67;;;10.90;;
8399;SDS011;4237;47.030;15.396;2023-02-14T14:00:51;15.20;;;11.13;;
8399;SDS011;4237;47.030;15.396;2023-02-14T14:06:10;13.50;;;10.90;;
8399;SDS011;4237;47.030;15.396;2023-02-14T14:08:41;15.43;;;11.80;;
8399;SDS011;4237;47.030;15.396;2023-02-14T14:11:12;20.13;;;11.17;;
8399;SDS011;4237;47.030;15.396;2023-02-14T14:16:32;18.63;;;10.70;;
8399;SDS011;4237;47.030;15.396;2023-02-14T14:19:03;17.97;;;11.43;;
8399;SDS011;4237;47.030;15.396;2023-02-14T14:24:31;23.57;;;11.43;;
8399;SDS011;4237;47.030;15.396;2023-02-14T14:27:03;17.57;;;11.30;;
8399;SDS011;4237;47.030;15.396;2023-02-14T14:29:44;16.20;;;11.90;;
8399;SDS011;4237;47.030;15.396;2023-02-14T14:32:19;15.77;;;10.50;;
8399;SDS011;4237;47.030;15.396;2023-02-14T14:35:00;14.53;;;11.20;;
8399;SDS011;4237;47.030;15.396;2023-02-14T14:37:31;13.63;;;10.80;;
8399;SDS011;4237;47.030;15.396;2023-02-14T14:40:17;15.93;;;11.87;;
8399;SDS011;4237;47.030;15.396;2023-02-14T14:42:37;13.27;;;10.63;;
8399;SDS011;4237;47.030;15.396;2023-02-14T14:45:18;16.87;;;10.93;;
8399;SDS011;4237;47.030;15.396;2023-02-14T14:47:42;16.73;;;11.40;;
8399;SDS011;4237;47.030;15.396;2023-02-14T14:50:21;15.57;;;10.77;;
8399;SDS011;4237;47.030;15.396;2023-02-14T14:52:50;16.10;;;11.67;;
8399;SDS011;4237;47.030;15.396;2023-02-14T14:55:22;14.87;;;10.67;;
8399;SDS011;4237;47.030;15.396;2023-02-14T14:57:58;14.10;;;10.87;;
8399;SDS011;4237;47.030;15.396;2023-02-14T15:00:37;18.63;;;10.83;;
8399;SDS011;4237;47.030;15.396;2023-02-14T15:03:12;16.80;;;10.37;;
8399;SDS011;4237;47.030;15.396;2023-02-14T15:05:45;16.77;;;10.90;;
8399;SDS011;4237;47.030;15.396;2023-02-14T15:08:20;27.77;;;11.13;;
8399;SDS011;4237;47.030;15.396;2023-02-14T15:10:54;15.17;;;10.50;;
8399;SDS011;4237;47.030;15.396;2023-02-14T15:13:29;14.63;;;9.73;;
8399;SDS011;4237;47.030;15.396;2023-02-14T15:16:22;14.37;;;9.20;;
8399;SDS011;4237;47.030;15.396;2023-02-14T15:18:48;12.40;;;9.27;;
8399;SDS011;4237;47.030;15.396;2023-02-14T15:21:20;17.27;;;9.10;;
8399;SDS011;4237;47.030;15.396;2023-02-14T15:23:49;11.57;;;9.53;;
8399;SDS011;4237;47.030;15.396;2023-02-14T15:26:24;15.13;;;9.57;;
8399;SDS011;4237;47.030;15.396;2023-02-14T15:28:55;14.10;;;9.93;;
8399;SDS011;4237;47.030;15.396;2023-02-14T15:31:27;13.33;;;8.70;;
8399;SDS011;4237;47.030;15.396;2023-02-14T15:33:57;12.90;;;9.27;;
8399;SDS011;4237;47.030;15.396;2023-02-14T15:36:29;16.63;;;9.70;;
8399;SDS011;4237;47.030;15.396;2023-02-14T15:39:00;15.43;;;9.57;;
8399;SDS011;4237;47.030;15.396;2023-02-14T15:41:32;15.63;;;9.93;;
8399;SDS011;4237;47.030;15.396;2023-02-14T15:44:00;19.57;;;9.87;;
8399;SDS011;4237;47.030;15.396;2023-02-14T15:46:31;19.47;;;9.97;;
8399;SDS011;4237;47.030;15.396;2023-02-14T15:49:08;19.50;;;10.27;;
8399;SDS011;4237;47.030;15.396;2023-02-14T15:51:39;22.90;;;10.07;;
8399;SDS011;4237;47.030;15.396;2023-02-14T15:54:24;19.57;;;10.50;;
8399;SDS011;4237;47.030;15.396;2023-02-14T15:57:05;14.63;;;9.60;;
8399;SDS011;4237;47.030;15.396;2023-02-14T15:59:38;15.27;;;10.50;;
8399;SDS011;4237;47.030;15.396;2023-02-14T16:04:43;15.47;;;9.97;;
8399;SDS011;4237;47.030;15.396;2023-02-14T16:07:25;15.57;;;10.63;;
8399;SDS011;4237;47.030;15.396;2023-02-14T16:13:01;19.73;;;10.53;;
8399;SDS011;4237;47.030;15.396;2023-02-14T16:15:33;19.33;;;11.40;;
8399;SDS011;4237;47.030;15.396;2023-02-14T16:18:29;25.03;;;12.97;;
8399;SDS011;4237;47.030;15.396;2023-02-14T16:21:20;20.07;;;13.17;;
8399;SDS011;4237;47.030;15.396;2023-02-14T16:26:38;21.50;;;12.43;;
8399;SDS011;4237;47.030;15.396;2023-02-14T16:29:14;25.67;;;13.13;;
8399;SDS011;4237;47.030;15.396;2023-02-14T16:31:46;25.50;;;14.00;;
8399;SDS011;4237;47.030;15.396;2023-02-14T16:34:13;27.57;;;14.33;;
8399;SDS011;4237;47.030;15.396;2023-02-14T16:36:43;23.63;;;14.03;;
8399;SDS011;4237;47.030;15.396;2023-02-14T16:39:16;22.43;;;13.30;;
8399;SDS011;4237;47.030;15.396;2023-02-14T16:41:47;27.60;;;14.20;;
8399;SDS011;4237;47.030;15.396;2023-02-14T16:44:20;25.73;;;13.60;;
8399;SDS011;4237;47.030;15.396;2023-02-14T16:46:49;23.50;;;14.37;;
8399;SDS011;4237;47.030;15.396;2023-02-14T16:49:18;23.30;;;14.53;;
8399;SDS011;4237;47.030;15.396;2023-02-14T16:51:49;25.97;;;14.63;;
8399;SDS011;4237;47.030;15.396;2023-02-14T16:54:23;24.37;;;14.90;;
8399;SDS011;4237;47.030;15.396;2023-02-14T16:56:56;30.90;;;17.00;;